createdAt,value
2023-05-15T00:00:37.547Z,4.07
2023-05-15T00:03:05.667Z,3.07
2023-05-15T00:05:34.959Z,2.43
2023-05-15T00:08:02.943Z,2.63
2023-05-15T00:10:30.785Z,2.30
2023-05-15T00:12:58.553Z,2.17
2023-05-15T00:15:27.016Z,2.50
2023-05-15T00:17:55.229Z,3.07
2023-05-15T00:20:23.242Z,3.23
2023-05-15T00:22:52.500Z,2.50
2023-05-15T00:25:20.794Z,2.60
2023-05-15T00:27:48.621Z,4.13
2023-05-15T00:30:16.641Z,2.73
2023-05-15T00:32:44.748Z,2.60
2023-05-15T00:35:12.679Z,4.83
2023-05-15T00:37:40.645Z,3.27
2023-05-15T00:40:11.520Z,3.20
2023-05-15T00:42:40.176Z,3.10
2023-05-15T00:45:10.960Z,5.47
2023-05-15T00:47:40.417Z,2.80
2023-05-15T00:50:10.530Z,4.23
2023-05-15T00:52:39.128Z,4.37
2023-05-15T00:55:07.659Z,2.90
2023-05-15T00:57:37.254Z,5.83
2023-05-15T01:00:07.118Z,3.23
2023-05-15T01:02:35.279Z,3.97
2023-05-15T01:05:03.332Z,5.13
2023-05-15T01:07:33.118Z,3.10
2023-05-15T01:10:02.291Z,2.53
2023-05-15T01:12:31.272Z,2.70
2023-05-15T01:15:01.009Z,4.50
2023-05-15T01:17:28.874Z,3.27
2023-05-15T01:19:58.227Z,3.13
2023-05-15T01:22:42.980Z,3.00
2023-05-15T01:25:45.841Z,2.97
2023-05-15T01:28:16.350Z,2.80
2023-05-15T01:30:45.230Z,5.23
2023-05-15T01:33:18.245Z,3.20
2023-05-15T01:35:49.852Z,4.00
2023-05-15T01:38:20.696Z,3.17
2023-05-15T01:40:49.746Z,3.57
2023-05-15T01:43:23.990Z,3.77
2023-05-15T01:45:51.836Z,4.27
2023-05-15T01:48:21.119Z,3.30
2023-05-15T01:50:50.858Z,4.37
2023-05-15T01:53:20.134Z,3.13
2023-05-15T01:55:48.112Z,3.23
2023-05-15T01:58:16.225Z,4.30
2023-05-15T02:00:45.952Z,3.80
2023-05-15T02:03:14.304Z,3.30
2023-05-15T02:05:42.959Z,3.40
2023-05-15T02:08:10.831Z,3.40
2023-05-15T02:10:38.632Z,4.53
2023-05-15T02:13:06.862Z,3.47
2023-05-15T02:15:35.017Z,3.23
2023-05-15T02:18:04.317Z,3.60
2023-05-15T02:20:35.021Z,3.73
2023-05-15T02:23:02.819Z,4.20
2023-05-15T02:25:39.128Z,4.30
2023-05-15T02:28:09.004Z,5.13
2023-05-15T02:30:45.152Z,3.37
2023-05-15T02:33:23.442Z,4.80
2023-05-15T02:35:54.382Z,4.87
2023-05-15T02:38:27.118Z,6.43
2023-05-15T02:40:57.077Z,3.30
2023-05-15T02:43:25.299Z,3.80
2023-05-15T02:45:53.969Z,3.60
2023-05-15T02:48:23.266Z,4.37
2023-05-15T02:50:51.117Z,4.00
2023-05-15T02:53:18.891Z,4.83
2023-05-15T02:55:46.691Z,4.20
2023-05-15T02:58:14.553Z,3.67
2023-05-15T03:00:42.406Z,4.93
2023-05-15T03:03:10.300Z,3.40
2023-05-15T03:05:39.549Z,3.20
2023-05-15T03:08:07.396Z,3.37
2023-05-15T03:10:35.203Z,3.30
2023-05-15T03:13:03.831Z,3.60
2023-05-15T03:15:31.649Z,5.10
2023-05-15T03:17:59.492Z,4.60
2023-05-15T03:20:27.308Z,3.30
2023-05-15T03:22:56.492Z,3.63
2023-05-15T03:25:24.657Z,3.00
2023-05-15T03:27:52.597Z,3.40
2023-05-15T03:30:20.602Z,7.10
2023-05-15T03:32:48.485Z,3.27
2023-05-15T03:35:16.694Z,3.07
2023-05-15T03:37:44.635Z,3.17
2023-05-15T03:40:15.195Z,2.73
2023-05-15T03:42:42.982Z,2.60
2023-05-15T03:45:11.325Z,2.87
2023-05-15T03:47:39.227Z,3.13
2023-05-15T03:50:07.999Z,3.33
2023-05-15T03:52:35.848Z,2.60
2023-05-15T03:55:03.735Z,3.07
2023-05-15T03:57:33.353Z,2.60
2023-05-15T04:00:03.935Z,2.43
2023-05-15T04:02:31.842Z,4.47
2023-05-15T04:04:59.692Z,2.73
2023-05-15T04:07:28.163Z,2.73
2023-05-15T04:09:55.968Z,2.80
2023-05-15T04:12:23.766Z,3.43
2023-05-15T04:14:52.970Z,6.83
2023-05-15T04:17:20.770Z,3.60
2023-05-15T04:19:48.732Z,2.87
2023-05-15T04:22:16.506Z,4.17
2023-05-15T04:24:44.292Z,4.70
2023-05-15T04:27:12.150Z,3.13
2023-05-15T04:29:39.992Z,3.27
2023-05-15T04:32:09.387Z,3.63
2023-05-15T04:34:37.311Z,4.10
2023-05-15T04:37:05.675Z,3.47
2023-05-15T04:39:33.440Z,5.60
2023-05-15T04:42:01.216Z,4.13
2023-05-15T04:44:29.030Z,4.40
2023-05-15T04:46:56.833Z,4.17
2023-05-15T04:49:26.067Z,4.10
2023-05-15T04:51:53.871Z,7.43
2023-05-15T04:54:21.857Z,4.47
2023-05-15T04:56:49.661Z,6.57
2023-05-15T04:59:18.269Z,4.93
2023-05-15T05:01:46.433Z,8.40
2023-05-15T05:04:14.692Z,7.80
2023-05-15T05:06:43.956Z,6.73
2023-05-15T05:09:11.789Z,9.23
2023-05-15T05:11:43.528Z,6.33
2023-05-15T05:14:11.320Z,8.40
2023-05-15T05:16:39.364Z,7.73
2023-05-15T05:19:07.488Z,8.00
2023-05-15T05:21:35.408Z,10.67
2023-05-15T05:24:04.776Z,13.23
2023-05-15T05:26:32.623Z,10.53
2023-05-15T05:29:00.430Z,16.43
2023-05-15T05:31:28.264Z,15.77
2023-05-15T05:33:56.276Z,19.53
2023-05-15T05:36:24.135Z,23.30
2023-05-15T05:38:51.969Z,25.07
2023-05-15T05:41:21.615Z,26.10
2023-05-15T05:43:52.945Z,27.13
2023-05-15T05:46:21.228Z,25.70
2023-05-15T05:48:49.038Z,27.17
2023-05-15T05:51:16.824Z,28.27
2023-05-15T05:53:44.639Z,28.63
2023-05-15T05:56:12.503Z,25.13
2023-05-15T05:58:41.678Z,29.53
2023-05-15T06:01:09.482Z,29.77
2023-05-15T06:03:37.847Z,32.27
2023-05-15T06:06:06.544Z,30.60
2023-05-15T06:08:34.370Z,31.90
2023-05-15T06:11:02.155Z,34.37
2023-05-15T06:13:29.956Z,32.53
2023-05-15T06:15:59.387Z,36.80
2023-05-15T06:18:27.295Z,35.20
2023-05-15T06:20:55.113Z,34.10
2023-05-15T06:23:24.386Z,31.23
2023-05-15T06:25:52.314Z,30.07
2023-05-15T06:28:20.100Z,30.07
2023-05-15T06:30:47.916Z,26.60
2023-05-15T06:33:17.157Z,27.93
2023-05-15T06:35:45.038Z,28.17
2023-05-15T06:38:12.789Z,30.40
2023-05-15T06:40:40.587Z,31.07
2023-05-15T06:43:08.380Z,31.13
2023-05-15T06:45:36.215Z,32.37
2023-05-15T06:48:04.062Z,32.43
2023-05-15T06:50:33.265Z,32.50
2023-05-15T06:53:01.300Z,36.63
2023-05-15T06:55:29.150Z,37.63
2023-05-15T06:57:57.019Z,35.70
2023-05-15T07:00:24.809Z,39.27
2023-05-15T07:02:52.688Z,40.60
2023-05-15T07:05:21.882Z,35.80
2023-05-15T07:07:51.037Z,37.90
2023-05-15T07:10:18.834Z,43.97
2023-05-15T07:12:46.642Z,36.43
2023-05-15T07:15:14.480Z,43.20
2023-05-15T07:17:42.308Z,39.10
2023-05-15T07:20:10.954Z,37.33
2023-05-15T07:22:51.857Z,36.20
2023-05-15T07:25:25.702Z,41.37
2023-05-15T07:27:53.801Z,39.63
2023-05-15T07:30:21.660Z,37.47
2023-05-15T07:32:49.531Z,41.47
2023-05-15T07:35:18.340Z,40.47
2023-05-15T07:37:46.446Z,43.10
2023-05-15T07:40:15.500Z,39.73
2023-05-15T07:42:45.846Z,36.00
2023-05-15T07:45:13.790Z,40.07
2023-05-15T07:47:46.380Z,39.17
2023-05-15T07:50:14.483Z,38.73
2023-05-15T07:52:43.126Z,41.67
2023-05-15T07:55:11.209Z,35.27
2023-05-15T07:57:40.781Z,37.47
2023-05-15T08:00:13.558Z,41.53
2023-05-15T08:02:42.644Z,38.43
2023-05-15T08:05:10.832Z,42.57
2023-05-15T08:07:38.701Z,37.83
2023-05-15T08:10:07.631Z,37.37
2023-05-15T08:12:35.522Z,36.63
2023-05-15T08:15:03.344Z,31.70
2023-05-15T08:17:32.503Z,33.53
2023-05-15T08:20:00.397Z,37.33
2023-05-15T08:22:30.645Z,31.03
2023-05-15T08:24:58.711Z,29.67
2023-05-15T08:27:26.788Z,30.73
2023-05-15T08:29:55.207Z,29.83
2023-05-15T08:32:23.484Z,27.63
2023-05-15T08:34:52.839Z,34.47
2023-05-15T08:37:20.794Z,32.47
2023-05-15T08:39:48.755Z,28.80
2023-05-15T08:42:22.503Z,100.13
2023-05-15T08:44:51.045Z,37.17
2023-05-15T08:47:20.194Z,28.67
2023-05-15T08:49:55.590Z,29.63
2023-05-15T08:52:23.680Z,27.50
2023-05-15T08:54:51.764Z,28.13
2023-05-15T08:57:19.731Z,29.77
2023-05-15T08:59:48.102Z,30.97
2023-05-15T09:02:17.224Z,26.70
2023-05-15T09:04:45.550Z,28.00
2023-05-15T09:07:15.633Z,29.93
2023-05-15T09:09:44.216Z,23.83
2023-05-15T09:12:12.687Z,29.20
2023-05-15T09:14:40.501Z,28.47
2023-05-15T09:17:08.645Z,25.23
2023-05-15T09:19:36.943Z,25.30
2023-05-15T09:22:18.296Z,23.17
2023-05-15T09:24:48.161Z,23.73
2023-05-15T09:27:16.258Z,26.23
2023-05-15T09:29:44.060Z,24.30
2023-05-15T09:32:13.941Z,25.70
2023-05-15T09:34:43.127Z,26.33
2023-05-15T09:37:12.378Z,26.67
2023-05-15T09:39:43.574Z,30.70
2023-05-15T09:42:12.731Z,29.13
2023-05-15T09:44:42.837Z,32.43
2023-05-15T09:47:11.197Z,31.07
2023-05-15T09:49:39.153Z,30.57
2023-05-15T09:52:09.389Z,32.27
2023-05-15T09:54:37.851Z,30.40
2023-05-15T09:57:11.324Z,31.33
2023-05-15T09:59:44.924Z,23.17
2023-05-15T10:02:15.236Z,24.47
2023-05-15T10:04:43.055Z,26.17
2023-05-15T10:07:10.981Z,26.40
2023-05-15T10:09:39.501Z,31.27
2023-05-15T10:12:10.987Z,30.43
2023-05-15T10:14:38.795Z,29.03
2023-05-15T10:17:06.670Z,30.87
2023-05-15T10:19:37.525Z,29.03
2023-05-15T10:22:10.162Z,28.10
2023-05-15T10:24:39.980Z,23.37
2023-05-15T10:27:08.014Z,26.90
2023-05-15T10:29:37.878Z,22.63
2023-05-15T10:32:06.129Z,24.33
2023-05-15T10:34:34.390Z,23.60
2023-05-15T10:37:02.374Z,25.37
2023-05-15T10:39:30.689Z,21.37
2023-05-15T10:41:58.933Z,22.43
2023-05-15T10:44:26.750Z,23.30
2023-05-15T10:46:56.593Z,24.53
2023-05-15T10:49:24.704Z,24.80
2023-05-15T10:51:53.918Z,23.57
2023-05-15T10:54:23.147Z,22.83
2023-05-15T10:56:52.224Z,23.97
2023-05-15T10:59:20.374Z,20.47
2023-05-15T11:01:49.239Z,20.93
2023-05-15T11:04:20.267Z,19.83
2023-05-15T11:06:49.117Z,21.20
2023-05-15T11:09:36.637Z,18.27
2023-05-15T11:12:06.129Z,19.17
2023-05-15T11:14:35.816Z,18.37
2023-05-15T11:17:05.344Z,16.07
2023-05-15T11:19:39.640Z,17.93
2023-05-15T11:22:21.111Z,15.87
2023-05-15T11:24:51.388Z,17.50
2023-05-15T11:27:20.405Z,14.93
2023-05-15T11:30:08.581Z,13.80
2023-05-15T11:32:43.866Z,11.80
2023-05-15T11:35:13.840Z,11.70
2023-05-15T11:37:43.985Z,13.60
2023-05-15T11:40:15.691Z,12.45
2023-05-15T11:42:43.493Z,13.55
2023-05-15T11:45:11.929Z,13.77
2023-05-15T11:47:39.719Z,13.30
2023-05-15T11:50:08.586Z,12.40
2023-05-15T11:52:38.016Z,12.95
2023-05-15T11:55:07.026Z,13.32
2023-05-15T11:57:34.875Z,11.52
2023-05-15T12:00:02.652Z,11.25
2023-05-15T12:02:30.531Z,9.85
2023-05-15T12:04:58.514Z,9.25
2023-05-15T12:07:26.472Z,9.50
2023-05-15T12:09:56.032Z,10.45
2023-05-15T12:12:26.946Z,9.85
2023-05-15T12:14:59.316Z,9.13
2023-05-15T12:17:27.734Z,10.18
2023-05-15T12:19:57.132Z,9.07
2023-05-15T12:22:24.923Z,8.25
2023-05-15T12:24:52.750Z,10.10
2023-05-15T12:27:21.926Z,11.85
2023-05-15T12:29:49.722Z,9.98
2023-05-15T12:32:17.790Z,9.18
2023-05-15T12:34:46.283Z,10.75
2023-05-15T12:37:14.576Z,10.93
2023-05-15T12:39:52.092Z,8.13
2023-05-15T12:42:21.279Z,10.15
2023-05-15T12:44:52.188Z,10.00
2023-05-15T12:47:27.815Z,13.05
2023-05-15T12:49:58.705Z,12.85
2023-05-15T12:52:29.627Z,12.80
2023-05-15T12:55:01.377Z,8.95
2023-05-15T12:57:30.845Z,10.52
2023-05-15T12:59:58.638Z,10.45
2023-05-15T13:02:26.433Z,9.05
2023-05-15T13:04:54.274Z,10.02
2023-05-15T13:07:22.704Z,11.20
2023-05-15T13:10:03.706Z,10.27
2023-05-15T13:12:38.271Z,8.73
2023-05-15T13:15:07.581Z,9.10
2023-05-15T13:17:36.167Z,9.65
2023-05-15T13:20:05.694Z,10.32
2023-05-15T13:22:33.525Z,13.85
2023-05-15T13:25:01.290Z,10.10
2023-05-15T13:27:29.052Z,8.38
2023-05-15T13:29:58.230Z,8.65
2023-05-15T13:32:26.046Z,8.23
2023-05-15T13:34:54.962Z,10.30
2023-05-15T13:37:22.992Z,9.60
2023-05-15T13:39:50.762Z,11.30
2023-05-15T13:42:18.573Z,14.73
2023-05-15T13:44:46.330Z,11.45
2023-05-15T13:47:15.617Z,9.60
2023-05-15T13:49:43.463Z,10.57
2023-05-15T13:52:11.259Z,10.18
2023-05-15T13:54:39.461Z,9.93
2023-05-15T13:57:07.253Z,9.32
2023-05-15T13:59:35.096Z,10.25
2023-05-15T14:02:02.956Z,11.05
2023-05-15T14:04:32.307Z,12.15
2023-05-15T14:07:00.214Z,13.65
2023-05-15T14:09:28.527Z,11.20
2023-05-15T14:11:56.404Z,8.48
2023-05-15T14:14:24.638Z,10.13
2023-05-15T14:16:52.841Z,9.10
2023-05-15T14:19:20.854Z,13.90
2023-05-15T14:21:50.175Z,9.80
2023-05-15T14:24:18.000Z,9.10
2023-05-15T14:26:46.091Z,11.10
2023-05-15T14:29:14.299Z,7.83
2023-05-15T14:31:42.453Z,9.50
2023-05-15T14:34:11.060Z,9.20
2023-05-15T14:36:38.807Z,6.97
2023-05-15T14:39:07.956Z,16.00
2023-05-15T14:41:35.749Z,13.00
2023-05-15T14:44:03.538Z,7.83
2023-05-15T14:46:31.326Z,8.25
2023-05-15T14:48:59.150Z,6.63
2023-05-15T14:51:26.929Z,8.57
2023-05-15T14:53:54.718Z,9.05
2023-05-15T14:56:23.924Z,8.30
2023-05-15T14:58:53.695Z,9.15
2023-05-15T15:01:21.642Z,12.93
2023-05-15T15:03:49.582Z,8.85
2023-05-15T15:06:17.590Z,10.15
2023-05-15T15:08:45.373Z,14.38
2023-05-15T15:11:13.202Z,7.55
2023-05-15T15:13:42.299Z,11.35
2023-05-15T15:16:10.192Z,7.32
2023-05-15T15:18:38.108Z,6.40
2023-05-15T15:21:06.217Z,10.43
2023-05-15T15:23:34.009Z,7.47
2023-05-15T15:26:01.809Z,12.40
2023-05-15T15:28:33.580Z,9.88
2023-05-15T15:31:02.806Z,6.03
2023-05-15T15:33:30.579Z,8.02
2023-05-15T15:35:58.344Z,7.50
2023-05-15T15:38:26.201Z,11.63
2023-05-15T15:40:53.990Z,6.75
2023-05-15T15:43:21.746Z,5.28
2023-05-15T15:45:49.584Z,12.48
2023-05-15T15:48:19.148Z,10.77
2023-05-15T15:50:47.423Z,10.98
2023-05-15T15:53:15.177Z,10.88
2023-05-15T15:55:44.158Z,12.23
2023-05-15T15:58:12.892Z,14.07
2023-05-15T16:00:41.247Z,12.25
2023-05-15T16:03:09.231Z,9.82
2023-05-15T16:05:38.427Z,13.15
2023-05-15T16:08:06.715Z,10.80
2023-05-15T16:10:34.478Z,12.48
2023-05-15T16:13:02.332Z,13.20
2023-05-15T16:15:30.104Z,12.10
2023-05-15T16:17:58.018Z,11.85
2023-05-15T16:20:26.248Z,11.82
2023-05-15T16:22:55.646Z,9.35
2023-05-15T16:25:23.544Z,14.30
2023-05-15T16:27:51.342Z,10.48
2023-05-15T16:30:19.224Z,14.80
2023-05-15T16:32:47.085Z,9.07
2023-05-15T16:35:14.880Z,12.83
2023-05-15T16:37:42.689Z,10.90
2023-05-15T16:40:12.860Z,12.70
2023-05-15T16:42:41.508Z,11.57
2023-05-15T16:45:10.177Z,10.20
2023-05-15T16:47:39.297Z,10.40
2023-05-15T16:50:08.265Z,9.43
2023-05-15T16:52:36.847Z,10.77
2023-05-15T16:55:05.038Z,9.68
2023-05-15T16:57:37.654Z,7.37
2023-05-15T17:00:07.592Z,7.27
2023-05-15T17:02:35.501Z,9.67
2023-05-15T17:05:03.698Z,7.30
2023-05-15T17:07:31.447Z,10.98
2023-05-15T17:09:59.304Z,7.53
2023-05-15T17:12:27.164Z,6.70
2023-05-15T17:14:58.577Z,9.43
2023-05-15T17:17:26.494Z,11.13
2023-05-15T17:19:54.351Z,5.87
2023-05-15T17:22:22.703Z,10.13
2023-05-15T17:24:52.361Z,9.00
2023-05-15T17:27:20.761Z,5.30
2023-05-15T17:29:49.020Z,7.23
2023-05-15T17:32:19.089Z,5.43
2023-05-15T17:34:47.315Z,5.20
2023-05-15T17:37:15.415Z,6.90
2023-05-15T17:39:43.215Z,7.13
2023-05-15T17:42:10.993Z,5.53
2023-05-15T17:44:39.305Z,5.10
2023-05-15T17:47:07.829Z,8.10
2023-05-15T17:49:37.012Z,6.13
2023-05-15T17:52:05.170Z,5.27
2023-05-15T17:54:32.962Z,7.43
2023-05-15T17:57:00.764Z,6.90
2023-05-15T17:59:29.153Z,7.67
2023-05-15T18:01:57.064Z,8.40
2023-05-15T18:04:25.090Z,7.10
2023-05-15T18:06:54.292Z,7.27
2023-05-15T18:09:24.264Z,6.40
2023-05-15T18:11:52.637Z,7.63
2023-05-15T18:14:20.496Z,5.63
2023-05-15T18:16:48.316Z,6.37
2023-05-15T18:19:16.184Z,5.23
2023-05-15T18:21:43.952Z,11.03
2023-05-15T18:24:13.133Z,8.20
2023-05-15T18:26:41.072Z,8.67
2023-05-15T18:29:08.898Z,8.03
2023-05-15T18:31:37.285Z,7.33
2023-05-15T18:34:05.249Z,6.73
2023-05-15T18:36:33.017Z,5.63
2023-05-15T18:39:02.476Z,7.10
2023-05-15T18:41:31.636Z,6.60
2023-05-15T18:43:59.452Z,9.43
2023-05-15T18:46:28.426Z,5.80
2023-05-15T18:48:56.402Z,6.53
2023-05-15T18:51:24.562Z,7.97
2023-05-15T18:53:52.374Z,14.33
2023-05-15T18:56:20.120Z,6.73
2023-05-15T18:58:49.323Z,8.50
2023-05-15T19:01:17.238Z,8.70
2023-05-15T19:03:45.163Z,8.73
2023-05-15T19:06:19.688Z,10.00
2023-05-15T19:08:48.316Z,13.43
2023-05-15T19:11:16.135Z,16.13
2023-05-15T19:13:43.885Z,13.27
2023-05-15T19:16:13.057Z,14.33
2023-05-15T19:18:40.886Z,18.00
2023-05-15T19:21:08.710Z,20.33
2023-05-15T19:23:36.474Z,16.03
2023-05-15T19:26:04.395Z,17.80
2023-05-15T19:28:32.264Z,20.90
2023-05-15T19:31:00.002Z,16.33
2023-05-15T19:33:29.445Z,17.00
2023-05-15T19:35:57.231Z,24.90
2023-05-15T19:38:24.981Z,19.10
2023-05-15T19:40:53.008Z,18.00
2023-05-15T19:43:20.765Z,14.80
2023-05-15T19:45:48.694Z,21.83
2023-05-15T19:48:16.574Z,24.77
2023-05-15T19:50:46.063Z,15.60
2023-05-15T19:53:13.848Z,18.30
2023-05-15T19:55:41.833Z,25.60
2023-05-15T19:58:09.678Z,21.03
2023-05-15T20:00:37.457Z,15.83
2023-05-15T20:03:05.504Z,18.87
2023-05-15T20:05:33.398Z,21.13
2023-05-15T20:08:02.574Z,17.83
2023-05-15T20:10:30.521Z,16.53
2023-05-15T20:12:58.356Z,14.87
2023-05-15T20:15:29.274Z,18.20
2023-05-15T20:17:57.140Z,18.13
2023-05-15T20:20:25.256Z,16.47
2023-05-15T20:22:53.285Z,15.27
2023-05-15T20:25:24.243Z,14.50
2023-05-15T20:27:56.415Z,18.67
2023-05-15T20:30:24.579Z,16.23
2023-05-15T20:32:52.774Z,13.60
2023-05-15T20:35:20.871Z,14.33
2023-05-15T20:37:48.609Z,12.87
2023-05-15T20:40:16.642Z,15.43
2023-05-15T20:42:45.986Z,13.83
2023-05-15T20:45:13.968Z,13.70
2023-05-15T20:47:45.407Z,14.20
2023-05-15T20:50:13.733Z,14.37
2023-05-15T20:52:41.741Z,15.33
2023-05-15T20:55:15.975Z,15.80
2023-05-15T20:57:49.379Z,17.40
2023-05-15T21:00:18.814Z,18.07
2023-05-15T21:02:47.516Z,18.03
2023-05-15T21:05:15.785Z,20.33
2023-05-15T21:07:44.479Z,23.10
2023-05-15T21:10:12.785Z,22.00
2023-05-15T21:12:42.168Z,21.23
2023-05-15T21:15:12.230Z,22.10
2023-05-15T21:17:40.973Z,25.77
2023-05-15T21:20:10.531Z,23.97
2023-05-15T21:22:38.417Z,25.23
2023-05-15T21:25:07.007Z,29.50
2023-05-15T21:27:34.893Z,27.17
2023-05-15T21:30:02.770Z,30.07
2023-05-15T21:32:32.020Z,33.97
2023-05-15T21:34:59.862Z,31.50
2023-05-15T21:37:28.210Z,33.50
2023-05-15T21:39:55.976Z,36.03
2023-05-15T21:42:23.906Z,33.87
2023-05-15T21:44:51.660Z,36.17
2023-05-15T21:47:19.538Z,36.03
2023-05-15T21:49:48.740Z,37.17
2023-05-15T21:52:16.668Z,39.43
2023-05-15T21:54:44.708Z,34.17
2023-05-15T21:57:12.529Z,37.70
2023-05-15T21:59:40.389Z,39.17
2023-05-15T22:02:08.346Z,40.77
2023-05-15T22:04:36.318Z,43.70
2023-05-15T22:07:05.854Z,45.60
2023-05-15T22:09:33.803Z,40.50
2023-05-15T22:12:01.637Z,45.67
2023-05-15T22:14:29.535Z,44.87
2023-05-15T22:16:57.350Z,48.37
2023-05-15T22:19:33.013Z,51.53
2023-05-15T22:22:01.907Z,48.37
2023-05-15T22:24:31.201Z,53.30
2023-05-15T22:26:59.061Z,51.93
2023-05-15T22:29:26.905Z,52.53
2023-05-15T22:31:55.181Z,52.37
2023-05-15T22:34:23.096Z,54.97
2023-05-15T22:36:50.841Z,55.80
2023-05-15T22:39:18.665Z,56.07
2023-05-15T22:41:47.890Z,50.83
2023-05-15T22:44:15.926Z,52.57
2023-05-15T22:46:44.060Z,50.90
2023-05-15T22:49:23.468Z,59.30
2023-05-15T22:51:51.603Z,58.27
2023-05-15T22:54:21.748Z,59.47
2023-05-15T22:56:52.181Z,52.93
2023-05-15T22:59:20.109Z,55.43
2023-05-15T23:01:49.225Z,55.77
2023-05-15T23:04:18.220Z,51.53
2023-05-15T23:06:46.419Z,57.40
2023-05-15T23:09:14.208Z,54.07
2023-05-15T23:11:42.214Z,52.80
2023-05-15T23:14:12.151Z,52.90
2023-05-15T23:16:39.960Z,52.23
2023-05-15T23:19:07.931Z,52.17
2023-05-15T23:21:36.367Z,52.33
2023-05-15T23:24:04.336Z,53.07
2023-05-15T23:26:32.337Z,49.03
2023-05-15T23:29:00.281Z,50.70
2023-05-15T23:31:29.552Z,51.17
2023-05-15T23:33:57.379Z,50.17
2023-05-15T23:36:25.417Z,48.77
2023-05-15T23:38:53.232Z,46.33
2023-05-15T23:41:21.989Z,47.23
2023-05-15T23:43:50.775Z,50.57
2023-05-15T23:46:18.875Z,53.40
2023-05-15T23:48:48.339Z,47.90
2023-05-15T23:51:16.524Z,46.50
2023-05-15T23:53:44.531Z,48.53
2023-05-15T23:56:12.280Z,47.53
2023-05-15T23:58:40.298Z,49.40
